createdAt,value
2018-08-25T00:01:09.612Z,15.40
2018-08-25T00:15:05.787Z,15.40
2018-08-25T00:17:34.259Z,15.40
2018-08-25T00:20:02.547Z,15.50
2018-08-25T00:22:31.299Z,15.50
2018-08-25T00:24:59.609Z,15.50
2018-08-25T00:27:27.852Z,15.50
2018-08-25T00:32:25.527Z,15.40
2018-08-25T00:34:53.918Z,15.40
2018-08-25T00:37:22.137Z,15.30
2018-08-25T00:39:50.287Z,15.30
2018-08-25T00:42:18.584Z,15.30
2018-08-25T00:44:46.777Z,15.30
2018-08-25T00:47:15.126Z,15.30
2018-08-25T00:49:43.347Z,15.30
2018-08-25T00:52:11.758Z,15.30
2018-08-25T00:54:40.015Z,15.20
2018-08-25T00:57:08.235Z,15.20
2018-08-25T00:59:36.468Z,15.20
2018-08-25T01:02:05.125Z,15.20
2018-08-25T01:04:33.284Z,15.20
2018-08-25T01:07:01.602Z,15.10
2018-08-25T01:12:26.791Z,15.10
2018-08-25T01:14:55.055Z,15.10
2018-08-25T01:17:23.324Z,15.10
2018-08-25T01:19:51.854Z,15.10
2018-08-25T01:22:20.054Z,15.10
2018-08-25T01:24:48.335Z,15.00
2018-08-25T01:27:16.745Z,15.00
2018-08-25T01:29:45.493Z,15.00
2018-08-25T01:32:14.012Z,15.00
2018-08-25T01:34:42.258Z,15.00
2018-08-25T01:37:10.646Z,15.10
2018-08-25T01:39:39.080Z,15.10
2018-08-25T01:42:07.358Z,15.10
2018-08-25T01:44:35.653Z,15.10
2018-08-25T01:47:04.701Z,15.10
2018-08-25T01:49:33.056Z,15.10
2018-08-25T01:52:01.289Z,15.10
2018-08-25T01:54:29.649Z,15.10
2018-08-25T01:56:58.170Z,15.10
2018-08-25T01:59:26.500Z,15.00
2018-08-25T02:01:55.091Z,15.00
2018-08-25T02:04:23.317Z,14.90
2018-08-25T02:06:51.592Z,14.80
2018-08-25T02:09:19.785Z,14.80
2018-08-25T02:11:48.014Z,14.80
2018-08-25T02:14:16.222Z,14.80
2018-08-25T02:16:44.476Z,14.80
2018-08-25T02:19:12.705Z,14.70
2018-08-25T02:21:40.978Z,14.70
2018-08-25T02:24:09.482Z,14.80
2018-08-25T02:32:26.975Z,14.80
2018-08-25T02:34:55.349Z,14.80
2018-08-25T02:37:23.545Z,14.90
2018-08-25T02:39:51.766Z,14.90
2018-08-25T02:42:19.915Z,14.90
2018-08-25T02:44:48.258Z,14.90
2018-08-25T02:47:16.453Z,14.90
2018-08-25T02:49:44.640Z,14.90
2018-08-25T02:52:12.842Z,15.00
2018-08-25T02:54:41.070Z,15.00
2018-08-25T02:57:09.416Z,15.00
2018-08-25T02:59:37.595Z,15.00
2018-08-25T03:02:05.791Z,15.00
2018-08-25T03:04:33.982Z,15.00
2018-08-25T03:07:02.177Z,15.00
2018-08-25T03:09:30.398Z,15.00
2018-08-25T03:11:58.529Z,14.90
2018-08-25T03:14:26.782Z,14.90
2018-08-25T03:16:54.978Z,14.80
2018-08-25T03:19:23.198Z,14.70
2018-08-25T03:21:51.405Z,14.70
2018-08-25T03:24:19.855Z,14.70
2018-08-25T03:26:48.046Z,14.60
2018-08-25T03:29:16.221Z,14.60
2018-08-25T03:31:44.423Z,14.60
2018-08-25T03:34:12.611Z,14.70
2018-08-25T03:36:40.820Z,14.70
2018-08-25T03:39:10.490Z,14.70
2018-08-25T03:41:38.736Z,14.70
2018-08-25T03:44:06.960Z,14.70
2018-08-25T03:46:35.207Z,14.70
2018-08-25T03:49:03.399Z,14.70
2018-08-25T03:51:31.622Z,14.70
2018-08-25T03:54:00.101Z,14.70
2018-08-25T03:56:28.677Z,14.60
2018-08-25T03:58:57.133Z,14.50
2018-08-25T04:01:25.662Z,14.50
2018-08-25T04:03:54.075Z,14.40
2018-08-25T04:06:22.575Z,14.20
2018-08-25T04:08:51.010Z,14.00
2018-08-25T04:11:19.457Z,13.80
2018-08-25T04:13:47.930Z,13.70
2018-08-25T04:16:16.490Z,13.50
2018-08-25T04:18:44.930Z,13.30
2018-08-25T04:21:13.348Z,13.10
2018-08-25T04:23:41.500Z,13.00
2018-08-25T04:26:09.735Z,12.90
2018-08-25T04:28:37.949Z,12.90
2018-08-25T04:31:06.156Z,12.90
2018-08-25T04:33:34.431Z,12.90
2018-08-25T04:36:02.504Z,12.90
2018-08-25T04:38:30.707Z,12.90
2018-08-25T04:40:58.901Z,12.80
2018-08-25T04:43:27.114Z,12.90
2018-08-25T04:45:55.319Z,12.80
2018-08-25T04:48:23.537Z,12.80
2018-08-25T04:50:51.723Z,12.80
2018-08-25T04:53:19.982Z,12.80
2018-08-25T04:55:48.275Z,12.80
2018-08-25T04:58:16.477Z,12.80
2018-08-25T05:00:44.635Z,12.80
2018-08-25T05:03:12.786Z,12.80
2018-08-25T05:05:41.025Z,12.80
2018-08-25T05:08:09.219Z,12.80
2018-08-25T05:10:37.391Z,12.90
2018-08-25T05:13:05.596Z,12.90
2018-08-25T05:15:33.770Z,12.90
2018-08-25T05:18:01.977Z,12.80
2018-08-25T05:20:30.114Z,12.80
2018-08-25T05:22:58.308Z,12.70
2018-08-25T05:25:26.443Z,12.70
2018-08-25T05:27:54.652Z,12.70
2018-08-25T05:30:22.845Z,12.70
2018-08-25T05:32:51.081Z,12.70
2018-08-25T05:35:19.246Z,12.60
2018-08-25T05:37:47.436Z,12.60
2018-08-25T05:40:15.648Z,12.50
2018-08-25T05:42:43.835Z,12.50
2018-08-25T05:45:12.070Z,12.60
2018-08-25T05:47:40.232Z,12.60
2018-08-25T05:50:08.432Z,12.60
2018-08-25T05:52:36.642Z,12.60
2018-08-25T05:55:04.878Z,12.60
2018-08-25T05:57:33.088Z,12.50
2018-08-25T06:00:01.253Z,12.60
2018-08-25T06:02:29.775Z,12.70
2018-08-25T06:04:58.370Z,12.80
2018-08-25T06:07:26.808Z,13.00
2018-08-25T06:09:55.369Z,13.10
2018-08-25T06:12:23.611Z,13.20
2018-08-25T06:14:51.794Z,13.30
2018-08-25T06:17:19.989Z,13.20
2018-08-25T06:19:48.162Z,13.30
2018-08-25T06:22:16.384Z,13.30
2018-08-25T06:24:44.564Z,13.40
2018-08-25T06:27:12.748Z,13.50
2018-08-25T06:29:40.987Z,13.70
2018-08-25T06:32:15.733Z,13.70
2018-08-25T06:34:43.930Z,13.90
2018-08-25T06:37:12.143Z,13.80
2018-08-25T06:39:40.330Z,13.70
2018-08-25T06:42:08.517Z,13.40
2018-08-25T06:44:36.700Z,13.40
2018-08-25T06:47:05.040Z,13.60
2018-08-25T06:49:33.239Z,13.90
2018-08-25T06:52:01.444Z,13.80
2018-08-25T06:54:29.832Z,13.90
2018-08-25T06:56:58.041Z,14.10
2018-08-25T06:59:26.485Z,14.20
2018-08-25T07:01:54.687Z,14.10
2018-08-25T07:04:22.962Z,13.90
2018-08-25T07:06:51.206Z,14.00
2018-08-25T07:09:19.358Z,14.20
2018-08-25T07:11:47.570Z,14.30
2018-08-25T07:14:15.744Z,14.40
2018-08-25T07:16:43.994Z,14.30
2018-08-25T07:19:12.150Z,13.90
2018-08-25T07:21:40.351Z,13.80
2018-08-25T07:24:08.640Z,13.80
2018-08-25T07:26:36.867Z,13.90
2018-08-25T07:29:05.233Z,14.10
2018-08-25T07:31:33.397Z,14.50
2018-08-25T07:34:01.574Z,14.70
2018-08-25T07:36:29.727Z,14.80
2018-08-25T07:38:57.914Z,14.80
2018-08-25T07:41:26.108Z,14.70
2018-08-25T07:43:54.369Z,14.50
2018-08-25T07:46:22.668Z,14.20
2018-08-25T07:48:50.851Z,14.30
2018-08-25T07:51:19.049Z,14.60
2018-08-25T07:53:47.407Z,14.60
2018-08-25T07:56:15.581Z,14.60
2018-08-25T07:58:43.800Z,14.70
2018-08-25T08:01:12.052Z,14.40
2018-08-25T08:03:40.285Z,14.40
2018-08-25T08:06:08.566Z,14.60
2018-08-25T08:08:36.833Z,14.60
2018-08-25T08:11:05.033Z,14.40
2018-08-25T08:13:33.306Z,14.10
2018-08-25T08:16:01.560Z,14.10
2018-08-25T08:18:29.859Z,14.00
2018-08-25T08:20:58.077Z,13.80
2018-08-25T08:23:26.294Z,13.90
2018-08-25T08:25:54.491Z,14.10
2018-08-25T08:28:22.685Z,14.30
2018-08-25T08:30:50.906Z,15.30
2018-08-25T08:33:19.118Z,17.70
2018-08-25T08:35:47.307Z,18.30
2018-08-25T08:38:15.519Z,19.30
2018-08-25T08:40:43.774Z,20.60
2018-08-25T08:43:12.047Z,20.30
2018-08-25T08:45:40.296Z,20.40
2018-08-25T08:48:08.448Z,21.00
2018-08-25T08:50:36.630Z,21.10
2018-08-25T08:53:04.836Z,19.30
2018-08-25T08:55:32.999Z,18.00
2018-08-25T08:58:01.250Z,17.10
2018-08-25T09:00:29.420Z,16.30
2018-08-25T09:02:57.663Z,15.90
2018-08-25T09:05:25.841Z,15.60
2018-08-25T09:07:54.016Z,15.40
2018-08-25T09:10:22.191Z,15.20
2018-08-25T09:12:50.369Z,14.80
2018-08-25T09:15:18.573Z,14.60
2018-08-25T09:17:46.777Z,14.40
2018-08-25T09:20:14.959Z,14.30
2018-08-25T09:22:43.169Z,14.10
2018-08-25T09:25:11.359Z,14.00
2018-08-25T09:27:39.570Z,14.00
2018-08-25T09:30:08.130Z,14.70
2018-08-25T09:32:36.321Z,15.90
2018-08-25T09:35:04.547Z,15.90
2018-08-25T09:37:32.969Z,15.80
2018-08-25T09:40:01.160Z,15.60
2018-08-25T09:42:29.378Z,15.30
2018-08-25T09:44:57.570Z,15.20
2018-08-25T09:47:25.722Z,15.30
2018-08-25T09:49:53.963Z,15.20
2018-08-25T09:52:22.242Z,15.20
2018-08-25T09:54:50.480Z,15.40
2018-08-25T09:57:18.685Z,15.60
2018-08-25T09:59:46.948Z,15.60
2018-08-25T10:02:15.173Z,15.40
2018-08-25T10:04:43.362Z,15.10
2018-08-25T10:07:11.551Z,14.80
2018-08-25T10:09:39.709Z,14.60
2018-08-25T10:12:07.905Z,14.50
2018-08-25T10:14:36.137Z,14.30
2018-08-25T10:17:04.338Z,14.30
2018-08-25T10:19:32.528Z,14.40
2018-08-25T10:22:00.706Z,14.60
2018-08-25T10:24:28.889Z,15.00
2018-08-25T10:26:57.061Z,15.90
2018-08-25T10:29:25.349Z,16.70
2018-08-25T10:31:53.561Z,17.40
2018-08-25T10:34:21.726Z,17.40
2018-08-25T10:36:49.923Z,17.20
2018-08-25T10:39:18.194Z,17.00
2018-08-25T10:41:46.437Z,17.20
2018-08-25T10:44:14.605Z,17.60
2018-08-25T10:46:42.870Z,17.90
2018-08-25T10:49:11.807Z,17.90
2018-08-25T10:51:40.075Z,17.20
2018-08-25T10:54:08.497Z,16.70
2018-08-25T10:56:36.995Z,17.00
2018-08-25T10:59:05.193Z,17.00
2018-08-25T11:01:33.457Z,17.20
2018-08-25T11:04:01.631Z,17.40
2018-08-25T11:06:29.865Z,17.40
2018-08-25T11:08:58.330Z,17.70
2018-08-25T11:11:26.581Z,18.20
2018-08-25T11:13:54.874Z,18.60
2018-08-25T11:16:23.227Z,18.10
2018-08-25T11:18:51.392Z,17.70
2018-08-25T11:21:19.650Z,17.30
2018-08-25T11:23:47.968Z,17.80
2018-08-25T11:26:16.121Z,18.40
2018-08-25T11:28:44.371Z,18.30
2018-08-25T11:31:12.515Z,17.90
2018-08-25T11:33:40.771Z,17.90
2018-08-25T11:36:09.033Z,18.10
2018-08-25T11:38:37.235Z,18.30
2018-08-25T11:41:05.897Z,18.60
2018-08-25T11:43:34.234Z,18.90
2018-08-25T11:46:02.672Z,18.90
2018-08-25T11:48:31.087Z,18.80
2018-08-25T11:50:59.392Z,18.60
2018-08-25T11:53:27.668Z,18.50
2018-08-25T11:55:55.978Z,18.40
2018-08-25T11:58:24.420Z,18.30
2018-08-25T12:00:52.660Z,17.90
2018-08-25T12:03:20.851Z,17.50
2018-08-25T12:05:49.000Z,17.30
2018-08-25T12:08:18.377Z,17.40
2018-08-25T12:10:46.603Z,17.60
2018-08-25T12:13:14.815Z,17.40
2018-08-25T12:15:43.081Z,17.40
2018-08-25T12:18:11.274Z,17.60
2018-08-25T12:20:39.484Z,17.50
2018-08-25T12:23:07.667Z,17.40
2018-08-25T12:25:35.833Z,17.40
2018-08-25T12:28:03.998Z,17.50
2018-08-25T12:30:32.207Z,17.80
2018-08-25T12:33:00.398Z,18.40
2018-08-25T12:35:28.597Z,19.00
2018-08-25T12:37:56.803Z,19.30
2018-08-25T12:40:25.011Z,19.40
2018-08-25T12:42:53.339Z,19.20
2018-08-25T12:45:21.634Z,19.60
2018-08-25T12:47:49.890Z,20.10
2018-08-25T12:50:18.336Z,20.20
2018-08-25T12:52:46.612Z,19.70
2018-08-25T12:55:15.045Z,19.20
2018-08-25T12:57:44.256Z,18.60
2018-08-25T13:00:12.427Z,18.10
2018-08-25T13:02:40.636Z,17.80
2018-08-25T13:05:10.759Z,17.70
2018-08-25T13:07:39.894Z,17.90
2018-08-25T13:10:08.072Z,18.70
2018-08-25T13:12:36.436Z,18.90
2018-08-25T13:15:05.460Z,19.60
2018-08-25T13:17:33.692Z,20.10
2018-08-25T13:20:01.865Z,20.40
2018-08-25T13:22:30.136Z,20.50
2018-08-25T13:24:58.618Z,20.20
2018-08-25T13:27:27.427Z,20.00
2018-08-25T13:29:55.887Z,19.70
2018-08-25T13:32:24.807Z,19.50
2018-08-25T13:34:53.969Z,19.30
2018-08-25T13:37:24.441Z,18.80
2018-08-25T13:39:52.737Z,18.60
2018-08-25T13:42:20.901Z,18.90
2018-08-25T13:44:49.113Z,19.00
2018-08-25T13:47:17.359Z,19.30
2018-08-25T13:49:45.592Z,19.30
2018-08-25T13:52:14.834Z,19.60
2018-08-25T13:54:43.157Z,19.80
2018-08-25T13:57:11.494Z,19.20
2018-08-25T13:59:40.955Z,19.20
2018-08-25T14:02:09.528Z,19.70
2018-08-25T14:04:37.845Z,20.10
2018-08-25T14:07:06.042Z,20.10
2018-08-25T14:09:34.229Z,19.50
2018-08-25T14:12:02.560Z,19.00
2018-08-25T14:14:30.791Z,18.80
2018-08-25T14:16:59.047Z,18.50
2018-08-25T14:19:27.268Z,18.30
2018-08-25T14:21:56.189Z,18.30
2018-08-25T14:24:24.387Z,17.90
2018-08-25T14:26:52.592Z,17.60
2018-08-25T14:29:21.047Z,17.40
2018-08-25T14:31:49.316Z,17.30
2018-08-25T14:34:17.515Z,17.00
2018-08-25T14:36:45.926Z,16.90
2018-08-25T14:39:14.098Z,16.70
2018-08-25T14:41:42.283Z,16.60
2018-08-25T14:44:10.487Z,16.70
2018-08-25T14:46:38.963Z,16.70
2018-08-25T14:49:07.481Z,16.80
2018-08-25T14:51:35.781Z,16.80
2018-08-25T14:54:04.029Z,16.80
2018-08-25T14:56:32.200Z,16.80
2018-08-25T14:59:01.781Z,16.80
2018-08-25T15:01:30.006Z,16.70
2018-08-25T15:03:59.931Z,16.60
2018-08-25T15:06:28.372Z,16.70
2018-08-25T15:08:56.534Z,16.80
2018-08-25T15:11:25.157Z,16.90
2018-08-25T15:13:53.429Z,17.00
2018-08-25T15:16:21.819Z,17.10
2018-08-25T15:18:50.027Z,17.50
2018-08-25T15:21:18.373Z,17.70
2018-08-25T15:23:46.645Z,17.70
2018-08-25T15:26:14.860Z,17.80
2018-08-25T15:28:43.040Z,17.80
2018-08-25T15:31:11.200Z,17.60
2018-08-25T15:33:39.366Z,17.70
2018-08-25T15:36:07.554Z,17.90
2018-08-25T15:38:35.706Z,18.10
2018-08-25T15:41:03.917Z,18.10
2018-08-25T15:43:32.417Z,17.90
2018-08-25T15:46:00.665Z,17.80
2018-08-25T15:48:28.880Z,17.90
2018-08-25T15:50:57.110Z,17.90
2018-08-25T15:53:25.671Z,17.90
2018-08-25T15:55:53.848Z,17.50
2018-08-25T15:58:22.182Z,17.50
2018-08-25T16:00:50.526Z,17.60
2018-08-25T16:03:18.747Z,17.50
2018-08-25T16:05:46.993Z,17.30
2018-08-25T16:08:15.213Z,17.30
2018-08-25T16:10:45.471Z,17.40
2018-08-25T16:13:14.025Z,17.40
2018-08-25T16:15:42.617Z,17.40
2018-08-25T16:18:11.301Z,17.40
2018-08-25T16:20:39.913Z,17.30
2018-08-25T16:23:08.614Z,17.30
2018-08-25T16:25:37.131Z,17.40
2018-08-25T16:28:05.682Z,17.40
2018-08-25T16:30:34.373Z,17.50
2018-08-25T16:33:03.101Z,17.50
2018-08-25T16:35:31.671Z,17.60
2018-08-25T16:38:00.345Z,17.70
2018-08-25T16:40:28.722Z,17.70
2018-08-25T16:42:56.910Z,17.50
2018-08-25T16:45:25.368Z,17.50
2018-08-25T16:47:53.604Z,17.40
2018-08-25T16:50:21.777Z,17.20
2018-08-25T16:52:50.127Z,17.40
2018-08-25T16:55:18.417Z,17.80
2018-08-25T16:57:46.567Z,17.90
2018-08-25T17:00:14.771Z,17.90
2018-08-25T17:02:42.988Z,17.70
2018-08-25T17:05:11.179Z,17.50
2018-08-25T17:07:39.402Z,17.10
2018-08-25T17:10:07.677Z,16.70
2018-08-25T17:12:35.952Z,16.50
2018-08-25T17:15:04.343Z,16.20
2018-08-25T17:17:32.552Z,16.00
2018-08-25T17:20:00.764Z,15.80
2018-08-25T17:22:28.971Z,15.70
2018-08-25T17:24:57.329Z,15.50
2018-08-25T17:27:25.625Z,15.50
2018-08-25T17:29:53.805Z,15.40
2018-08-25T17:32:21.988Z,15.20
2018-08-25T17:34:50.182Z,15.20
2018-08-25T17:37:18.363Z,14.90
2018-08-25T17:39:46.605Z,14.90
2018-08-25T17:42:14.863Z,15.00
2018-08-25T17:44:43.115Z,15.00
2018-08-25T17:47:11.330Z,15.00
2018-08-25T17:49:39.536Z,15.00
2018-08-25T17:52:07.723Z,15.10
2018-08-25T17:54:35.949Z,15.20
2018-08-25T17:57:04.340Z,15.10
2018-08-25T17:59:32.603Z,15.10
2018-08-25T18:02:00.992Z,15.00
2018-08-25T18:04:29.226Z,14.90
2018-08-25T18:06:57.433Z,14.80
2018-08-25T18:09:25.673Z,14.80
2018-08-25T18:11:53.890Z,14.70
2018-08-25T18:14:22.175Z,14.70
2018-08-25T18:16:50.461Z,14.80
2018-08-25T18:19:18.662Z,14.80
2018-08-25T18:21:46.873Z,14.80
2018-08-25T18:24:15.118Z,14.80
2018-08-25T18:26:43.384Z,14.70
2018-08-25T18:29:11.620Z,14.70
2018-08-25T18:31:39.790Z,14.70
2018-08-25T18:34:08.042Z,14.80
2018-08-25T18:36:36.331Z,14.80
2018-08-25T18:39:08.389Z,14.70
2018-08-25T18:41:36.657Z,14.70
2018-08-25T18:44:04.914Z,14.60
2018-08-25T18:46:33.194Z,14.60
2018-08-25T18:49:01.425Z,14.60
2018-08-25T18:51:29.677Z,14.60
2018-08-25T18:53:57.840Z,14.70
2018-08-25T18:56:26.097Z,14.70
2018-08-25T18:58:54.316Z,14.70
2018-08-25T19:01:22.539Z,14.70
2018-08-25T19:03:50.868Z,14.80
2018-08-25T19:06:19.215Z,14.70
2018-08-25T19:08:47.434Z,14.70
2018-08-25T19:11:15.656Z,14.50
2018-08-25T19:13:43.817Z,14.30
2018-08-25T19:16:12.070Z,14.10
2018-08-25T19:18:40.310Z,14.00
2018-08-25T19:21:08.469Z,13.80
2018-08-25T19:23:36.642Z,13.70
2018-08-25T19:26:04.861Z,13.60
2018-08-25T19:28:33.092Z,13.50
2018-08-25T19:31:01.304Z,13.40
2018-08-25T19:33:29.560Z,13.40
2018-08-25T19:35:57.826Z,13.30
2018-08-25T19:38:26.054Z,13.40
2018-08-25T19:40:54.348Z,13.40
2018-08-25T19:43:23.563Z,13.40
2018-08-25T19:45:51.817Z,13.30
2018-08-25T19:48:20.025Z,13.30
2018-08-25T19:50:48.287Z,13.40
2018-08-25T19:53:16.430Z,13.40
2018-08-25T19:55:44.658Z,13.40
2018-08-25T19:58:12.846Z,13.40
2018-08-25T20:00:41.064Z,13.30
2018-08-25T20:03:09.298Z,13.20
2018-08-25T20:05:37.656Z,13.10
2018-08-25T20:08:05.886Z,13.10
2018-08-25T20:10:34.250Z,13.00
2018-08-25T20:13:02.465Z,13.00
2018-08-25T20:15:30.688Z,13.00
2018-08-25T20:17:58.915Z,12.90
2018-08-25T20:20:27.165Z,12.90
2018-08-25T20:22:55.389Z,13.20
2018-08-25T20:25:23.649Z,12.70
2018-08-25T20:27:51.867Z,12.60
2018-08-25T20:30:20.268Z,12.50
2018-08-25T20:32:48.369Z,12.50
2018-08-25T20:35:16.646Z,12.40
2018-08-25T20:37:44.866Z,12.40
2018-08-25T20:40:13.034Z,12.30
2018-08-25T20:42:41.261Z,12.30
2018-08-25T20:45:09.528Z,12.20
2018-08-25T20:47:37.772Z,12.20
2018-08-25T20:50:06.201Z,12.10
2018-08-25T20:52:34.478Z,12.10
2018-08-25T20:55:02.697Z,12.10
2018-08-25T20:57:30.918Z,12.10
2018-08-25T20:59:59.160Z,12.10
2018-08-25T21:02:27.433Z,12.00
2018-08-25T21:04:55.672Z,12.00
2018-08-25T21:07:23.927Z,12.00
2018-08-25T21:09:52.146Z,11.90
2018-08-25T21:12:20.356Z,11.90
2018-08-25T21:14:48.566Z,11.90
2018-08-25T21:17:16.934Z,11.80
2018-08-25T21:19:45.142Z,11.80
2018-08-25T21:22:13.686Z,11.80
2018-08-25T21:24:41.861Z,11.80
2018-08-25T21:27:10.064Z,11.80
2018-08-25T21:29:38.266Z,11.80
2018-08-25T21:32:06.441Z,10.20
2018-08-25T21:34:34.583Z,11.70
2018-08-25T21:37:02.750Z,11.80
2018-08-25T21:39:30.952Z,11.80
2018-08-25T21:41:59.114Z,11.80
2018-08-25T21:44:27.313Z,11.70
2018-08-25T21:46:55.596Z,11.70
2018-08-25T21:49:23.890Z,11.60
2018-08-25T21:51:52.024Z,11.60
2018-08-25T21:54:20.263Z,11.60
2018-08-25T21:56:48.477Z,11.60
2018-08-25T21:59:16.678Z,11.50
2018-08-25T22:01:50.026Z,11.50
2018-08-25T22:04:18.200Z,11.50
2018-08-25T22:06:46.452Z,11.40
2018-08-25T22:09:14.654Z,11.40
2018-08-25T22:11:42.881Z,11.40
2018-08-25T22:14:11.379Z,11.40
2018-08-25T22:16:39.947Z,11.40
2018-08-25T22:19:08.528Z,11.40
2018-08-25T22:21:37.093Z,11.40
2018-08-25T22:24:05.630Z,11.30
2018-08-25T22:26:34.420Z,11.30
2018-08-25T22:29:03.143Z,11.30
2018-08-25T22:31:31.597Z,11.40
2018-08-25T22:34:00.133Z,11.40
2018-08-25T22:36:28.697Z,11.40
2018-08-25T22:38:57.321Z,11.40
2018-08-25T22:41:25.926Z,11.40
2018-08-25T22:43:54.045Z,11.30
2018-08-25T22:46:22.294Z,11.20
2018-08-25T22:48:50.511Z,11.20
2018-08-25T22:51:18.735Z,11.20
2018-08-25T22:53:46.928Z,11.10
2018-08-25T22:56:15.110Z,11.10
2018-08-25T22:58:43.345Z,11.00
2018-08-25T23:01:11.627Z,11.00
2018-08-25T23:03:39.788Z,11.00
2018-08-25T23:06:07.960Z,11.00
2018-08-25T23:08:36.159Z,11.00
2018-08-25T23:11:04.320Z,10.90
2018-08-25T23:13:32.542Z,10.90
2018-08-25T23:16:00.716Z,10.90
2018-08-25T23:18:28.908Z,10.90
2018-08-25T23:20:57.160Z,10.80
2018-08-25T23:23:25.603Z,10.80
2018-08-25T23:25:54.624Z,10.70
2018-08-25T23:28:23.120Z,10.70
2018-08-25T23:30:51.535Z,10.70
2018-08-25T23:33:19.939Z,10.80
2018-08-25T23:35:49.291Z,10.80
2018-08-25T23:38:17.472Z,10.80
2018-08-25T23:40:45.673Z,10.70
2018-08-25T23:43:13.855Z,10.80
2018-08-25T23:45:42.354Z,10.70
2018-08-25T23:48:10.599Z,10.70
2018-08-25T23:50:39.692Z,10.70
2018-08-25T23:53:07.889Z,11.20
2018-08-25T23:55:36.073Z,10.70
2018-08-25T23:58:04.907Z,10.70
